Chanthaburi, Thailand
Current Conditions -  °F | °C
As of 11:00 AM on Thursday 27 Nov 2014 (Local Time) from VTBU Reporting Station
Broken Clouds Broken Clouds  
Wind Chill: 88°   Ceiling: 30000
Heat Index: 98°   Visibility: 6mi
Dew Point: 75°   Wind: 6mph
Humidity: 66%   Direction: 160°SSE
Pressure: 29.85"   Gusts: NA
Location:  12.61°N, 102.11°E
Report Text: VTBU 270400Z 16005KT 9999 FEW020TCU BKN300 31/24 Q1011 A2988 TCU W
Loading
Personal Weather Stations






























Interactive Weather Map New forecast layout! Learn more

10-Day Weather Forecast

Advertisements
Track Severe Weather on mobile